sensor_id;sensor_type;location;lat;lon;timestamp;P1;durP1;ratioP1;P2;durP2;ratioP2
17214;SDS011;8723;51.502;6.918;2023-09-08T00:00:14;9.57;;;7.93;;
17214;SDS011;8723;51.502;6.918;2023-09-08T00:02:41;8.50;;;7.70;;
17214;SDS011;8723;51.502;6.918;2023-09-08T00:05:08;9.32;;;7.63;;
17214;SDS011;8723;51.502;6.918;2023-09-08T00:07:35;8.43;;;7.63;;
17214;SDS011;8723;51.502;6.918;2023-09-08T00:10:04;8.87;;;7.97;;
17214;SDS011;8723;51.502;6.918;2023-09-08T00:12:32;8.23;;;7.47;;
17214;SDS011;8723;51.502;6.918;2023-09-08T00:14:59;8.13;;;7.22;;
17214;SDS011;8723;51.502;6.918;2023-09-08T00:17:26;8.10;;;7.30;;
17214;SDS011;8723;51.502;6.918;2023-09-08T00:19:52;9.50;;;7.00;;
17214;SDS011;8723;51.502;6.918;2023-09-08T00:22:19;9.48;;;7.43;;
17214;SDS011;8723;51.502;6.918;2023-09-08T00:24:46;8.23;;;7.53;;
17214;SDS011;8723;51.502;6.918;2023-09-08T00:27:14;8.05;;;7.20;;
17214;SDS011;8723;51.502;6.918;2023-09-08T00:29:41;8.52;;;7.63;;
17214;SDS011;8723;51.502;6.918;2023-09-08T00:32:08;8.65;;;7.75;;
17214;SDS011;8723;51.502;6.918;2023-09-08T00:34:35;8.38;;;7.57;;
17214;SDS011;8723;51.502;6.918;2023-09-08T00:37:02;8.13;;;7.43;;
17214;SDS011;8723;51.502;6.918;2023-09-08T00:39:32;8.30;;;7.50;;
17214;SDS011;8723;51.502;6.918;2023-09-08T00:42:01;8.93;;;8.00;;
17214;SDS011;8723;51.502;6.918;2023-09-08T00:44:29;8.55;;;7.75;;
17214;SDS011;8723;51.502;6.918;2023-09-08T00:46:56;8.32;;;7.53;;
17214;SDS011;8723;51.502;6.918;2023-09-08T00:49:23;9.43;;;7.90;;
17214;SDS011;8723;51.502;6.918;2023-09-08T00:51:50;8.93;;;8.13;;
17214;SDS011;8723;51.502;6.918;2023-09-08T00:54:17;9.32;;;7.60;;
17214;SDS011;8723;51.502;6.918;2023-09-08T00:56:44;8.52;;;7.63;;
17214;SDS011;8723;51.502;6.918;2023-09-08T00:59:12;8.95;;;8.02;;
17214;SDS011;8723;51.502;6.918;2023-09-08T01:01:41;8.65;;;7.85;;
17214;SDS011;8723;51.502;6.918;2023-09-08T01:04:07;9.32;;;8.43;;
17214;SDS011;8723;51.502;6.918;2023-09-08T01:06:34;9.10;;;8.27;;
17214;SDS011;8723;51.502;6.918;2023-09-08T01:09:02;8.75;;;7.85;;
17214;SDS011;8723;51.502;6.918;2023-09-08T01:11:30;8.70;;;7.90;;
17214;SDS011;8723;51.502;6.918;2023-09-08T01:13:57;8.65;;;7.82;;
17214;SDS011;8723;51.502;6.918;2023-09-08T01:16:24;9.43;;;8.20;;
17214;SDS011;8723;51.502;6.918;2023-09-08T01:18:52;9.90;;;8.02;;
17214;SDS011;8723;51.502;6.918;2023-09-08T01:21:30;8.95;;;8.07;;
17214;SDS011;8723;51.502;6.918;2023-09-08T01:24:17;8.95;;;8.07;;
17214;SDS011;8723;51.502;6.918;2023-09-08T01:27:05;9.77;;;8.07;;
17214;SDS011;8723;51.502;6.918;2023-09-08T01:29:33;8.57;;;7.85;;
17214;SDS011;8723;51.502;6.918;2023-09-08T01:32:03;8.75;;;7.95;;
17214;SDS011;8723;51.502;6.918;2023-09-08T01:34:30;8.98;;;7.80;;
17214;SDS011;8723;51.502;6.918;2023-09-08T01:36:58;9.80;;;7.80;;
17214;SDS011;8723;51.502;6.918;2023-09-08T01:39:29;8.80;;;8.00;;
17214;SDS011;8723;51.502;6.918;2023-09-08T01:41:56;8.73;;;7.82;;
17214;SDS011;8723;51.502;6.918;2023-09-08T01:44:26;8.60;;;7.90;;
17214;SDS011;8723;51.502;6.918;2023-09-08T01:46:54;8.38;;;7.68;;
17214;SDS011;8723;51.502;6.918;2023-09-08T01:49:23;9.40;;;7.93;;
17214;SDS011;8723;51.502;6.918;2023-09-08T01:51:52;8.30;;;7.40;;
17214;SDS011;8723;51.502;6.918;2023-09-08T01:54:21;10.85;;;8.15;;
17214;SDS011;8723;51.502;6.918;2023-09-08T01:56:51;10.73;;;8.52;;
17214;SDS011;8723;51.502;6.918;2023-09-08T01:59:21;8.77;;;7.97;;
17214;SDS011;8723;51.502;6.918;2023-09-08T02:01:53;9.30;;;8.38;;
17214;SDS011;8723;51.502;6.918;2023-09-08T02:04:23;8.80;;;7.93;;
17214;SDS011;8723;51.502;6.918;2023-09-08T02:06:52;8.13;;;7.38;;
17214;SDS011;8723;51.502;6.918;2023-09-08T02:09:21;8.00;;;7.30;;
17214;SDS011;8723;51.502;6.918;2023-09-08T02:11:55;8.83;;;7.90;;
17214;SDS011;8723;51.502;6.918;2023-09-08T02:14:23;9.15;;;8.43;;
17214;SDS011;8723;51.502;6.918;2023-09-08T02:16:55;8.95;;;8.13;;
17214;SDS011;8723;51.502;6.918;2023-09-08T02:19:25;8.90;;;8.00;;
17214;SDS011;8723;51.502;6.918;2023-09-08T02:21:54;9.00;;;8.20;;
17214;SDS011;8723;51.502;6.918;2023-09-08T02:24:24;9.27;;;8.45;;
17214;SDS011;8723;51.502;6.918;2023-09-08T02:26:54;8.80;;;8.00;;
17214;SDS011;8723;51.502;6.918;2023-09-08T02:29:24;9.38;;;8.48;;
17214;SDS011;8723;51.502;6.918;2023-09-08T02:31:54;9.05;;;8.20;;
17214;SDS011;8723;51.502;6.918;2023-09-08T02:34:22;9.33;;;8.53;;
17214;SDS011;8723;51.502;6.918;2023-09-08T02:36:51;9.88;;;8.95;;
17214;SDS011;8723;51.502;6.918;2023-09-08T02:39:18;9.30;;;8.40;;
17214;SDS011;8723;51.502;6.918;2023-09-08T02:41:45;9.55;;;8.70;;
17214;SDS011;8723;51.502;6.918;2023-09-08T02:44:12;10.55;;;8.63;;
17214;SDS011;8723;51.502;6.918;2023-09-08T02:46:39;9.48;;;8.57;;
17214;SDS011;8723;51.502;6.918;2023-09-08T02:49:07;9.73;;;8.75;;
17214;SDS011;8723;51.502;6.918;2023-09-08T02:51:34;8.63;;;7.82;;
17214;SDS011;8723;51.502;6.918;2023-09-08T02:54:00;9.85;;;8.82;;
17214;SDS011;8723;51.502;6.918;2023-09-08T02:56:27;9.40;;;8.45;;
17214;SDS011;8723;51.502;6.918;2023-09-08T02:58:54;10.82;;;8.82;;
17214;SDS011;8723;51.502;6.918;2023-09-08T03:01:21;11.88;;;9.25;;
17214;SDS011;8723;51.502;6.918;2023-09-08T03:03:47;10.15;;;8.73;;
17214;SDS011;8723;51.502;6.918;2023-09-08T03:06:17;10.13;;;9.13;;
17214;SDS011;8723;51.502;6.918;2023-09-08T03:08:45;10.38;;;9.35;;
17214;SDS011;8723;51.502;6.918;2023-09-08T03:11:12;9.90;;;8.90;;
17214;SDS011;8723;51.502;6.918;2023-09-08T03:13:39;10.23;;;9.13;;
17214;SDS011;8723;51.502;6.918;2023-09-08T03:16:07;10.00;;;9.07;;
17214;SDS011;8723;51.502;6.918;2023-09-08T03:18:34;10.07;;;8.60;;
17214;SDS011;8723;51.502;6.918;2023-09-08T03:21:02;10.48;;;9.48;;
17214;SDS011;8723;51.502;6.918;2023-09-08T03:23:35;11.35;;;9.27;;
17214;SDS011;8723;51.502;6.918;2023-09-08T03:26:02;10.63;;;8.87;;
17214;SDS011;8723;51.502;6.918;2023-09-08T03:28:29;9.88;;;8.82;;
17214;SDS011;8723;51.502;6.918;2023-09-08T03:30:56;10.93;;;9.82;;
17214;SDS011;8723;51.502;6.918;2023-09-08T03:33:23;11.00;;;9.85;;
17214;SDS011;8723;51.502;6.918;2023-09-08T03:35:50;10.90;;;9.57;;
17214;SDS011;8723;51.502;6.918;2023-09-08T03:38:16;11.50;;;10.30;;
17214;SDS011;8723;51.502;6.918;2023-09-08T03:40:45;11.93;;;9.88;;
17214;SDS011;8723;51.502;6.918;2023-09-08T03:43:12;11.60;;;10.20;;
17214;SDS011;8723;51.502;6.918;2023-09-08T03:45:39;11.87;;;10.60;;
17214;SDS011;8723;51.502;6.918;2023-09-08T03:48:06;11.95;;;10.75;;
17214;SDS011;8723;51.502;6.918;2023-09-08T03:50:33;11.47;;;10.47;;
17214;SDS011;8723;51.502;6.918;2023-09-08T03:53:01;15.23;;;11.73;;
17214;SDS011;8723;51.502;6.918;2023-09-08T03:55:27;12.93;;;11.23;;
17214;SDS011;8723;51.502;6.918;2023-09-08T03:57:56;12.07;;;10.80;;
17214;SDS011;8723;51.502;6.918;2023-09-08T04:00:22;12.35;;;11.18;;
17214;SDS011;8723;51.502;6.918;2023-09-08T04:02:49;12.93;;;10.93;;
17214;SDS011;8723;51.502;6.918;2023-09-08T04:05:16;11.80;;;10.70;;
17214;SDS011;8723;51.502;6.918;2023-09-08T04:07:43;12.18;;;10.95;;
17214;SDS011;8723;51.502;6.918;2023-09-08T04:10:10;11.68;;;10.18;;
17214;SDS011;8723;51.502;6.918;2023-09-08T04:12:38;11.75;;;10.50;;
17214;SDS011;8723;51.502;6.918;2023-09-08T04:15:07;12.27;;;10.95;;
17214;SDS011;8723;51.502;6.918;2023-09-08T04:17:35;12.65;;;11.18;;
17214;SDS011;8723;51.502;6.918;2023-09-08T04:20:02;12.18;;;10.75;;
17214;SDS011;8723;51.502;6.918;2023-09-08T04:22:30;12.80;;;10.73;;
17214;SDS011;8723;51.502;6.918;2023-09-08T04:24:57;11.90;;;10.68;;
17214;SDS011;8723;51.502;6.918;2023-09-08T04:27:24;11.35;;;10.25;;
17214;SDS011;8723;51.502;6.918;2023-09-08T04:29:51;11.68;;;10.55;;
17214;SDS011;8723;51.502;6.918;2023-09-08T04:32:19;10.77;;;9.75;;
17214;SDS011;8723;51.502;6.918;2023-09-08T04:34:46;11.52;;;10.25;;
17214;SDS011;8723;51.502;6.918;2023-09-08T04:37:14;11.83;;;10.73;;
17214;SDS011;8723;51.502;6.918;2023-09-08T04:39:41;11.80;;;10.60;;
17214;SDS011;8723;51.502;6.918;2023-09-08T04:42:07;14.23;;;10.02;;
17214;SDS011;8723;51.502;6.918;2023-09-08T04:44:34;12.10;;;10.50;;
17214;SDS011;8723;51.502;6.918;2023-09-08T04:47:01;12.23;;;10.77;;
17214;SDS011;8723;51.502;6.918;2023-09-08T04:49:29;11.95;;;10.70;;
17214;SDS011;8723;51.502;6.918;2023-09-08T04:51:56;12.13;;;10.40;;
17214;SDS011;8723;51.502;6.918;2023-09-08T04:54:23;12.88;;;10.30;;
17214;SDS011;8723;51.502;6.918;2023-09-08T04:56:52;11.65;;;10.52;;
17214;SDS011;8723;51.502;6.918;2023-09-08T04:59:19;11.45;;;10.25;;
17214;SDS011;8723;51.502;6.918;2023-09-08T05:01:46;12.57;;;11.30;;
17214;SDS011;8723;51.502;6.918;2023-09-08T05:04:13;11.68;;;10.48;;
17214;SDS011;8723;51.502;6.918;2023-09-08T05:06:41;12.60;;;10.95;;
17214;SDS011;8723;51.502;6.918;2023-09-08T05:09:07;11.77;;;10.43;;
17214;SDS011;8723;51.502;6.918;2023-09-08T05:11:34;11.70;;;10.50;;
17214;SDS011;8723;51.502;6.918;2023-09-08T05:14:01;13.23;;;11.15;;
17214;SDS011;8723;51.502;6.918;2023-09-08T05:16:28;12.05;;;10.68;;
17214;SDS011;8723;51.502;6.918;2023-09-08T05:19:04;12.50;;;11.20;;
17214;SDS011;8723;51.502;6.918;2023-09-08T05:21:31;12.55;;;10.98;;
17214;SDS011;8723;51.502;6.918;2023-09-08T05:24:01;12.23;;;11.03;;
17214;SDS011;8723;51.502;6.918;2023-09-08T05:26:28;12.45;;;10.85;;
17214;SDS011;8723;51.502;6.918;2023-09-08T05:28:55;12.57;;;11.27;;
17214;SDS011;8723;51.502;6.918;2023-09-08T05:31:22;12.88;;;11.32;;
17214;SDS011;8723;51.502;6.918;2023-09-08T05:33:48;12.57;;;11.27;;
17214;SDS011;8723;51.502;6.918;2023-09-08T05:36:15;12.82;;;11.52;;
17214;SDS011;8723;51.502;6.918;2023-09-08T05:38:42;12.85;;;11.57;;
17214;SDS011;8723;51.502;6.918;2023-09-08T05:41:10;13.67;;;11.07;;
17214;SDS011;8723;51.502;6.918;2023-09-08T05:43:37;13.15;;;11.73;;
17214;SDS011;8723;51.502;6.918;2023-09-08T05:46:04;17.10;;;11.98;;
17214;SDS011;8723;51.502;6.918;2023-09-08T05:48:31;15.88;;;12.15;;
17214;SDS011;8723;51.502;6.918;2023-09-08T05:50:58;15.38;;;12.63;;
17214;SDS011;8723;51.502;6.918;2023-09-08T05:53:25;15.40;;;12.60;;
17214;SDS011;8723;51.502;6.918;2023-09-08T05:55:51;14.07;;;12.68;;
17214;SDS011;8723;51.502;6.918;2023-09-08T05:58:20;16.42;;;11.88;;
17214;SDS011;8723;51.502;6.918;2023-09-08T06:00:46;14.30;;;11.75;;
17214;SDS011;8723;51.502;6.918;2023-09-08T06:03:13;14.37;;;11.63;;
17214;SDS011;8723;51.502;6.918;2023-09-08T06:05:40;13.07;;;11.48;;
17214;SDS011;8723;51.502;6.918;2023-09-08T06:08:07;13.05;;;11.63;;
17214;SDS011;8723;51.502;6.918;2023-09-08T06:10:34;12.85;;;11.57;;
17214;SDS011;8723;51.502;6.918;2023-09-08T06:13:00;14.53;;;11.80;;
17214;SDS011;8723;51.502;6.918;2023-09-08T06:15:29;12.43;;;10.85;;
17214;SDS011;8723;51.502;6.918;2023-09-08T06:17:56;14.80;;;11.17;;
17214;SDS011;8723;51.502;6.918;2023-09-08T06:20:22;13.35;;;10.88;;
17214;SDS011;8723;51.502;6.918;2023-09-08T06:22:50;12.73;;;11.40;;
17214;SDS011;8723;51.502;6.918;2023-09-08T06:25:16;12.60;;;11.30;;
17214;SDS011;8723;51.502;6.918;2023-09-08T06:27:43;13.52;;;11.73;;
17214;SDS011;8723;51.502;6.918;2023-09-08T06:30:11;12.77;;;11.48;;
17214;SDS011;8723;51.502;6.918;2023-09-08T06:32:40;14.82;;;11.80;;
17214;SDS011;8723;51.502;6.918;2023-09-08T06:35:07;18.55;;;12.18;;
17214;SDS011;8723;51.502;6.918;2023-09-08T06:37:35;14.00;;;12.27;;
17214;SDS011;8723;51.502;6.918;2023-09-08T06:40:03;14.25;;;12.13;;
17214;SDS011;8723;51.502;6.918;2023-09-08T06:42:31;14.18;;;12.35;;
17214;SDS011;8723;51.502;6.918;2023-09-08T06:44:58;14.50;;;11.82;;
17214;SDS011;8723;51.502;6.918;2023-09-08T06:47:25;15.27;;;11.93;;
17214;SDS011;8723;51.502;6.918;2023-09-08T06:49:53;15.30;;;11.27;;
17214;SDS011;8723;51.502;6.918;2023-09-08T06:52:20;14.13;;;12.00;;
17214;SDS011;8723;51.502;6.918;2023-09-08T06:54:47;11.07;;;9.98;;
17214;SDS011;8723;51.502;6.918;2023-09-08T06:57:14;12.70;;;11.45;;
17214;SDS011;8723;51.502;6.918;2023-09-08T06:59:41;11.80;;;10.63;;
17214;SDS011;8723;51.502;6.918;2023-09-08T07:02:08;10.07;;;8.90;;
17214;SDS011;8723;51.502;6.918;2023-09-08T07:04:35;12.82;;;10.52;;
17214;SDS011;8723;51.502;6.918;2023-09-08T07:07:03;10.70;;;8.48;;
17214;SDS011;8723;51.502;6.918;2023-09-08T07:09:32;12.70;;;9.25;;
17214;SDS011;8723;51.502;6.918;2023-09-08T07:11:59;10.68;;;9.40;;
17214;SDS011;8723;51.502;6.918;2023-09-08T07:14:26;13.02;;;9.77;;
17214;SDS011;8723;51.502;6.918;2023-09-08T07:16:52;11.43;;;9.30;;
17214;SDS011;8723;51.502;6.918;2023-09-08T07:19:19;10.25;;;9.15;;
17214;SDS011;8723;51.502;6.918;2023-09-08T07:21:46;13.80;;;10.23;;
17214;SDS011;8723;51.502;6.918;2023-09-08T07:24:14;10.32;;;8.25;;
17214;SDS011;8723;51.502;6.918;2023-09-08T07:26:41;9.27;;;7.57;;
17214;SDS011;8723;51.502;6.918;2023-09-08T07:29:11;8.95;;;7.90;;
17214;SDS011;8723;51.502;6.918;2023-09-08T07:31:38;7.82;;;6.72;;
17214;SDS011;8723;51.502;6.918;2023-09-08T07:34:05;11.40;;;10.20;;
17214;SDS011;8723;51.502;6.918;2023-09-08T07:36:32;10.75;;;8.48;;
17214;SDS011;8723;51.502;6.918;2023-09-08T07:38:59;8.17;;;7.13;;
17214;SDS011;8723;51.502;6.918;2023-09-08T07:41:27;10.43;;;7.22;;
17214;SDS011;8723;51.502;6.918;2023-09-08T07:43:54;7.43;;;6.10;;
17214;SDS011;8723;51.502;6.918;2023-09-08T07:46:21;6.07;;;5.47;;
17214;SDS011;8723;51.502;6.918;2023-09-08T07:48:48;6.82;;;5.93;;
17214;SDS011;8723;51.502;6.918;2023-09-08T07:51:14;7.72;;;6.28;;
17214;SDS011;8723;51.502;6.918;2023-09-08T07:53:41;8.10;;;6.25;;
17214;SDS011;8723;51.502;6.918;2023-09-08T07:56:08;10.50;;;7.45;;
17214;SDS011;8723;51.502;6.918;2023-09-08T07:58:37;10.50;;;8.60;;
17214;SDS011;8723;51.502;6.918;2023-09-08T08:01:04;13.93;;;9.60;;
17214;SDS011;8723;51.502;6.918;2023-09-08T08:03:31;9.65;;;7.57;;
17214;SDS011;8723;51.502;6.918;2023-09-08T08:05:59;8.52;;;6.60;;
17214;SDS011;8723;51.502;6.918;2023-09-08T08:08:26;7.53;;;6.43;;
17214;SDS011;8723;51.502;6.918;2023-09-08T08:10:53;11.45;;;8.60;;
17214;SDS011;8723;51.502;6.918;2023-09-08T08:13:20;8.13;;;6.20;;
17214;SDS011;8723;51.502;6.918;2023-09-08T08:15:48;8.15;;;7.18;;
17214;SDS011;8723;51.502;6.918;2023-09-08T08:18:15;9.27;;;7.15;;
17214;SDS011;8723;51.502;6.918;2023-09-08T08:20:42;10.48;;;8.63;;
17214;SDS011;8723;51.502;6.918;2023-09-08T08:23:09;8.50;;;6.60;;
17214;SDS011;8723;51.502;6.918;2023-09-08T08:25:36;7.55;;;6.70;;
17214;SDS011;8723;51.502;6.918;2023-09-08T08:28:03;10.90;;;8.48;;
17214;SDS011;8723;51.502;6.918;2023-09-08T08:30:30;7.50;;;6.10;;
17214;SDS011;8723;51.502;6.918;2023-09-08T08:32:59;10.55;;;7.55;;
17214;SDS011;8723;51.502;6.918;2023-09-08T08:35:26;10.65;;;6.35;;
17214;SDS011;8723;51.502;6.918;2023-09-08T08:37:53;7.72;;;6.78;;
17214;SDS011;8723;51.502;6.918;2023-09-08T08:40:19;8.63;;;7.03;;
17214;SDS011;8723;51.502;6.918;2023-09-08T08:42:51;7.45;;;6.00;;
17214;SDS011;8723;51.502;6.918;2023-09-08T08:45:21;7.00;;;5.70;;
17214;SDS011;8723;51.502;6.918;2023-09-08T08:47:49;10.75;;;6.93;;
17214;SDS011;8723;51.502;6.918;2023-09-08T08:50:18;9.85;;;6.10;;
17214;SDS011;8723;51.502;6.918;2023-09-08T08:52:45;9.83;;;6.37;;
17214;SDS011;8723;51.502;6.918;2023-09-08T08:55:12;8.38;;;5.72;;
17214;SDS011;8723;51.502;6.918;2023-09-08T08:57:40;9.17;;;6.40;;
17214;SDS011;8723;51.502;6.918;2023-09-08T09:00:09;9.35;;;5.75;;
17214;SDS011;8723;51.502;6.918;2023-09-08T09:02:39;7.07;;;5.45;;
17214;SDS011;8723;51.502;6.918;2023-09-08T09:05:07;7.93;;;5.35;;
17214;SDS011;8723;51.502;6.918;2023-09-08T09:07:40;7.77;;;5.40;;
17214;SDS011;8723;51.502;6.918;2023-09-08T09:10:08;5.38;;;4.88;;
17214;SDS011;8723;51.502;6.918;2023-09-08T09:12:36;7.57;;;5.63;;
17214;SDS011;8723;51.502;6.918;2023-09-08T09:15:04;5.63;;;4.78;;
17214;SDS011;8723;51.502;6.918;2023-09-08T09:17:32;6.10;;;4.90;;
17214;SDS011;8723;51.502;6.918;2023-09-08T09:20:12;6.90;;;4.32;;
17214;SDS011;8723;51.502;6.918;2023-09-08T09:22:41;5.07;;;4.35;;
17214;SDS011;8723;51.502;6.918;2023-09-08T09:25:09;5.28;;;4.75;;
17214;SDS011;8723;51.502;6.918;2023-09-08T09:27:36;5.45;;;4.38;;
17214;SDS011;8723;51.502;6.918;2023-09-08T09:30:06;4.43;;;4.03;;
17214;SDS011;8723;51.502;6.918;2023-09-08T09:32:34;5.97;;;4.35;;
17214;SDS011;8723;51.502;6.918;2023-09-08T09:35:00;5.18;;;4.45;;
17214;SDS011;8723;51.502;6.918;2023-09-08T09:37:28;5.63;;;4.55;;
17214;SDS011;8723;51.502;6.918;2023-09-08T09:39:57;4.20;;;3.85;;
17214;SDS011;8723;51.502;6.918;2023-09-08T09:42:27;5.57;;;4.40;;
17214;SDS011;8723;51.502;6.918;2023-09-08T09:44:54;4.93;;;4.22;;
17214;SDS011;8723;51.502;6.918;2023-09-08T09:47:21;4.68;;;4.15;;
17214;SDS011;8723;51.502;6.918;2023-09-08T09:49:48;6.60;;;4.70;;
17214;SDS011;8723;51.502;6.918;2023-09-08T09:52:20;4.63;;;4.20;;
17214;SDS011;8723;51.502;6.918;2023-09-08T09:54:48;4.77;;;3.93;;
17214;SDS011;8723;51.502;6.918;2023-09-08T09:57:18;4.88;;;4.38;;
17214;SDS011;8723;51.502;6.918;2023-09-08T09:59:47;4.20;;;3.90;;
17214;SDS011;8723;51.502;6.918;2023-09-08T10:02:18;4.35;;;3.92;;
17214;SDS011;8723;51.502;6.918;2023-09-08T10:04:47;4.65;;;4.25;;
17214;SDS011;8723;51.502;6.918;2023-09-08T10:07:15;5.18;;;4.25;;
17214;SDS011;8723;51.502;6.918;2023-09-08T10:09:43;5.00;;;4.50;;
17214;SDS011;8723;51.502;6.918;2023-09-08T10:12:11;4.90;;;4.50;;
17214;SDS011;8723;51.502;6.918;2023-09-08T10:14:43;4.70;;;4.25;;
17214;SDS011;8723;51.502;6.918;2023-09-08T10:17:12;4.32;;;3.90;;
17214;SDS011;8723;51.502;6.918;2023-09-08T10:19:42;4.10;;;3.75;;
17214;SDS011;8723;51.502;6.918;2023-09-08T10:22:16;4.50;;;4.20;;
17214;SDS011;8723;51.502;6.918;2023-09-08T10:24:47;4.25;;;3.95;;
17214;SDS011;8723;51.502;6.918;2023-09-08T10:27:16;4.70;;;4.20;;
17214;SDS011;8723;51.502;6.918;2023-09-08T10:29:47;5.20;;;4.70;;
17214;SDS011;8723;51.502;6.918;2023-09-08T10:32:15;5.47;;;4.40;;
17214;SDS011;8723;51.502;6.918;2023-09-08T10:34:44;4.50;;;4.00;;
17214;SDS011;8723;51.502;6.918;2023-09-08T10:37:18;5.18;;;4.50;;
17214;SDS011;8723;51.502;6.918;2023-09-08T10:39:46;4.20;;;3.80;;
17214;SDS011;8723;51.502;6.918;2023-09-08T10:42:20;5.43;;;4.77;;
17214;SDS011;8723;51.502;6.918;2023-09-08T10:45:00;4.88;;;4.38;;
17214;SDS011;8723;51.502;6.918;2023-09-08T10:47:30;5.15;;;3.90;;
17214;SDS011;8723;51.502;6.918;2023-09-08T10:49:59;4.80;;;4.35;;
17214;SDS011;8723;51.502;6.918;2023-09-08T10:52:26;4.65;;;4.20;;
17214;SDS011;8723;51.502;6.918;2023-09-08T10:54:54;5.00;;;4.50;;
17214;SDS011;8723;51.502;6.918;2023-09-08T10:57:22;4.63;;;4.22;;
17214;SDS011;8723;51.502;6.918;2023-09-08T10:59:51;4.78;;;3.85;;
17214;SDS011;8723;51.502;6.918;2023-09-08T11:02:32;4.88;;;4.43;;
17214;SDS011;8723;51.502;6.918;2023-09-08T11:05:01;4.57;;;4.20;;
17214;SDS011;8723;51.502;6.918;2023-09-08T11:07:29;4.30;;;4.00;;
17214;SDS011;8723;51.502;6.918;2023-09-08T11:09:56;4.40;;;4.05;;
17214;SDS011;8723;51.502;6.918;2023-09-08T11:12:25;5.35;;;4.85;;
17214;SDS011;8723;51.502;6.918;2023-09-08T11:14:53;4.85;;;4.45;;
17214;SDS011;8723;51.502;6.918;2023-09-08T11:17:20;4.90;;;4.50;;
17214;SDS011;8723;51.502;6.918;2023-09-08T11:19:52;4.40;;;4.10;;
17214;SDS011;8723;51.502;6.918;2023-09-08T11:22:21;4.55;;;4.15;;
17214;SDS011;8723;51.502;6.918;2023-09-08T11:24:49;5.27;;;4.20;;
17214;SDS011;8723;51.502;6.918;2023-09-08T11:27:17;4.53;;;4.13;;
17214;SDS011;8723;51.502;6.918;2023-09-08T11:29:45;4.18;;;3.85;;
17214;SDS011;8723;51.502;6.918;2023-09-08T11:32:12;4.93;;;4.45;;
17214;SDS011;8723;51.502;6.918;2023-09-08T11:34:39;4.00;;;3.70;;
17214;SDS011;8723;51.502;6.918;2023-09-08T11:37:09;5.22;;;4.13;;
17214;SDS011;8723;51.502;6.918;2023-09-08T11:39:38;4.75;;;4.15;;
17214;SDS011;8723;51.502;6.918;2023-09-08T11:42:05;4.10;;;3.80;;
17214;SDS011;8723;51.502;6.918;2023-09-08T11:44:33;4.65;;;4.25;;
17214;SDS011;8723;51.502;6.918;2023-09-08T11:47:01;4.50;;;4.10;;
17214;SDS011;8723;51.502;6.918;2023-09-08T11:49:33;5.80;;;3.80;;
17214;SDS011;8723;51.502;6.918;2023-09-08T11:52:01;4.78;;;4.38;;
17214;SDS011;8723;51.502;6.918;2023-09-08T11:54:30;4.88;;;4.47;;
17214;SDS011;8723;51.502;6.918;2023-09-08T11:56:57;4.88;;;4.18;;
17214;SDS011;8723;51.502;6.918;2023-09-08T11:59:25;5.60;;;4.40;;
17214;SDS011;8723;51.502;6.918;2023-09-08T12:01:53;4.78;;;4.38;;
17214;SDS011;8723;51.502;6.918;2023-09-08T12:04:20;4.55;;;4.10;;
17214;SDS011;8723;51.502;6.918;2023-09-08T12:06:47;4.28;;;3.88;;
17214;SDS011;8723;51.502;6.918;2023-09-08T12:09:14;5.47;;;4.30;;
17214;SDS011;8723;51.502;6.918;2023-09-08T12:11:43;4.47;;;4.07;;
17214;SDS011;8723;51.502;6.918;2023-09-08T12:14:10;4.43;;;4.03;;
17214;SDS011;8723;51.502;6.918;2023-09-08T12:16:38;4.53;;;4.13;;
17214;SDS011;8723;51.502;6.918;2023-09-08T12:19:05;4.75;;;4.30;;
17214;SDS011;8723;51.502;6.918;2023-09-08T12:21:35;4.68;;;4.28;;
17214;SDS011;8723;51.502;6.918;2023-09-08T12:24:20;4.80;;;4.30;;
17214;SDS011;8723;51.502;6.918;2023-09-08T12:27:08;4.60;;;4.18;;
17214;SDS011;8723;51.502;6.918;2023-09-08T12:29:35;5.13;;;4.22;;
17214;SDS011;8723;51.502;6.918;2023-09-08T12:32:02;4.50;;;4.10;;
17214;SDS011;8723;51.502;6.918;2023-09-08T12:34:29;4.20;;;3.90;;
17214;SDS011;8723;51.502;6.918;2023-09-08T12:36:56;4.40;;;4.00;;
17214;SDS011;8723;51.502;6.918;2023-09-08T12:39:23;4.28;;;3.97;;
17214;SDS011;8723;51.502;6.918;2023-09-08T12:41:50;4.27;;;3.93;;
17214;SDS011;8723;51.502;6.918;2023-09-08T12:44:18;4.22;;;3.83;;
17214;SDS011;8723;51.502;6.918;2023-09-08T12:46:45;4.90;;;4.45;;
17214;SDS011;8723;51.502;6.918;2023-09-08T12:49:12;4.57;;;4.18;;
17214;SDS011;8723;51.502;6.918;2023-09-08T12:51:39;4.30;;;3.90;;
17214;SDS011;8723;51.502;6.918;2023-09-08T12:54:06;4.28;;;3.88;;
17214;SDS011;8723;51.502;6.918;2023-09-08T12:56:33;4.53;;;4.13;;
17214;SDS011;8723;51.502;6.918;2023-09-08T12:59:00;4.50;;;4.10;;
17214;SDS011;8723;51.502;6.918;2023-09-08T13:01:29;5.13;;;4.38;;
17214;SDS011;8723;51.502;6.918;2023-09-08T13:03:56;4.88;;;4.38;;
17214;SDS011;8723;51.502;6.918;2023-09-08T13:06:23;4.82;;;4.40;;
17214;SDS011;8723;51.502;6.918;2023-09-08T13:08:49;5.10;;;4.60;;
17214;SDS011;8723;51.502;6.918;2023-09-08T13:11:16;4.90;;;4.38;;
17214;SDS011;8723;51.502;6.918;2023-09-08T13:13:43;5.57;;;4.18;;
17214;SDS011;8723;51.502;6.918;2023-09-08T13:16:10;4.88;;;4.38;;
17214;SDS011;8723;51.502;6.918;2023-09-08T13:18:39;4.35;;;4.05;;
17214;SDS011;8723;51.502;6.918;2023-09-08T13:21:06;4.78;;;4.32;;
17214;SDS011;8723;51.502;6.918;2023-09-08T13:23:33;5.27;;;4.40;;
17214;SDS011;8723;51.502;6.918;2023-09-08T13:26:00;4.88;;;4.38;;
17214;SDS011;8723;51.502;6.918;2023-09-08T13:28:26;4.95;;;4.32;;
17214;SDS011;8723;51.502;6.918;2023-09-08T13:30:53;5.23;;;4.80;;
17214;SDS011;8723;51.502;6.918;2023-09-08T13:33:20;4.70;;;4.30;;
17214;SDS011;8723;51.502;6.918;2023-09-08T13:35:48;5.07;;;4.57;;
17214;SDS011;8723;51.502;6.918;2023-09-08T13:38:15;4.35;;;4.05;;
17214;SDS011;8723;51.502;6.918;2023-09-08T13:40:42;5.30;;;4.80;;
17214;SDS011;8723;51.502;6.918;2023-09-08T13:43:09;4.25;;;3.95;;
17214;SDS011;8723;51.502;6.918;2023-09-08T13:45:37;4.97;;;4.47;;
17214;SDS011;8723;51.502;6.918;2023-09-08T13:48:04;4.70;;;4.30;;
17214;SDS011;8723;51.502;6.918;2023-09-08T13:50:32;4.85;;;4.45;;
17214;SDS011;8723;51.502;6.918;2023-09-08T13:53:00;4.50;;;4.20;;
17214;SDS011;8723;51.502;6.918;2023-09-08T13:55:27;5.10;;;4.60;;
17214;SDS011;8723;51.502;6.918;2023-09-08T13:57:54;4.60;;;4.30;;
17214;SDS011;8723;51.502;6.918;2023-09-08T14:00:21;4.22;;;3.92;;
17214;SDS011;8723;51.502;6.918;2023-09-08T14:02:47;5.20;;;4.60;;
17214;SDS011;8723;51.502;6.918;2023-09-08T14:05:14;4.70;;;4.30;;
17214;SDS011;8723;51.502;6.918;2023-09-08T14:07:41;4.60;;;4.30;;
17214;SDS011;8723;51.502;6.918;2023-09-08T14:10:09;4.63;;;4.23;;
17214;SDS011;8723;51.502;6.918;2023-09-08T14:12:36;6.18;;;4.55;;
17214;SDS011;8723;51.502;6.918;2023-09-08T14:15:03;5.03;;;4.50;;
17214;SDS011;8723;51.502;6.918;2023-09-08T14:17:31;4.80;;;4.38;;
17214;SDS011;8723;51.502;6.918;2023-09-08T14:19:58;5.55;;;4.85;;
17214;SDS011;8723;51.502;6.918;2023-09-08T14:22:24;5.40;;;4.13;;
17214;SDS011;8723;51.502;6.918;2023-09-08T14:24:51;4.72;;;4.32;;
17214;SDS011;8723;51.502;6.918;2023-09-08T14:27:19;4.50;;;4.20;;
17214;SDS011;8723;51.502;6.918;2023-09-08T14:29:46;5.63;;;4.35;;
17214;SDS011;8723;51.502;6.918;2023-09-08T14:32:13;6.50;;;4.70;;
17214;SDS011;8723;51.502;6.918;2023-09-08T14:34:40;4.97;;;4.57;;
17214;SDS011;8723;51.502;6.918;2023-09-08T14:37:07;5.40;;;4.20;;
17214;SDS011;8723;51.502;6.918;2023-09-08T14:39:35;4.90;;;4.40;;
17214;SDS011;8723;51.502;6.918;2023-09-08T14:42:02;5.63;;;4.47;;
17214;SDS011;8723;51.502;6.918;2023-09-08T14:44:31;5.60;;;4.35;;
17214;SDS011;8723;51.502;6.918;2023-09-08T14:46:58;4.87;;;4.37;;
17214;SDS011;8723;51.502;6.918;2023-09-08T14:49:24;7.30;;;4.43;;
17214;SDS011;8723;51.502;6.918;2023-09-08T14:51:51;4.82;;;4.30;;
17214;SDS011;8723;51.502;6.918;2023-09-08T14:54:18;5.97;;;4.70;;
17214;SDS011;8723;51.502;6.918;2023-09-08T14:56:45;4.78;;;4.38;;